Flight Track Log - Related Links

Times and Time Zones

All times are in EDT time to prevent confusion due to time zone crossing. See the CSN328 flight status page for this flight to view local times or setup timezone preferences in your user account.

Time Position Orientation Groundspeed Altitude Reporting Facility
EDT Latitude Longitude Course Direction KTS MPH feet Rate Location/Type
02:51AM 33.8933 -118.4961 222° Southwest 206 237 2,600  Level Los Angeles Center
02:52AM 33.8317 -118.5619 247° West 252 290 4,000 1,700 Climbing Los Angeles Center
02:53AM 33.8006 -118.6508 263° West 280 322 6,000 2,050 Climbing Los Angeles Center
02:54AM 33.7900 -118.7506 270° West 290 334 8,100 1,750 Climbing Los Angeles Center
02:55AM 33.7903 -118.8331 308° West 308 354 9,500 1,300 Climbing Los Angeles Center
02:56AM 33.8508 -118.9275 314° West 299 344 10,700 1,300 Climbing Los Angeles Center
02:57AM 33.9219 -119.0150 313° West 330 380 12,100 1,650 Climbing Los Angeles Center
02:58AM 33.9928 -119.1053 313° West 353 406 14,000 1,750 Climbing Los Angeles Center
02:59AM 34.0633 -119.1978 313° West 367 422 15,600 1,500 Climbing Los Angeles Center
03:00AM 34.1342 -119.2883 313° West 372 428 17,000 1,300 Climbing Los Angeles Center
03:01AM 34.2150 -119.3944 313° West 372 428 18,200 1,200 Climbing Los Angeles Center
03:02AM 34.2894 -119.4928 314° West 382 440 19,400 1,250 Climbing Los Angeles Center
03:03AM 34.3661 -119.5889 312° West 387 445 20,700 1,000 Climbing Los Angeles Center
03:04AM 34.4422 -119.6928 316° Northwest 392 451 21,400 900 Climbing Los Angeles Center
03:05AM 34.5269 -119.7922 327° Northwest 404 465 22,500 1,000 Climbing Los Angeles Center
03:06AM 34.6167 -119.8619 327° Northwest 409 471 23,400 850 Climbing Los Angeles Center
03:07AM 34.7164 -119.9422 325° Northwest 425 489 24,200 900 Climbing Los Angeles Center
03:08AM 34.8181 -120.0278 326° Northwest 439 505 25,200 900 Climbing Los Angeles Center
03:09AM 34.9319 -120.1219 324° Northwest 439 505 26,000 800 Climbing Los Angeles Center
03:10AM 35.0333 -120.2106 326° Northwest 444 511 26,800 706 Climbing Los Angeles Center
03:12AM 35.1956 -120.3436 326° Northwest 455 524 27,800 627 Climbing Oakland Center
03:13AM 35.3064 -120.4367 324° Northwest 468 539 28,400 650 Climbing Oakland Center
03:14AM 35.4111 -120.5303 326° Northwest 473 544 29,100 750 Climbing Oakland Center
03:15AM 35.5200 -120.6189 326° Northwest 473 544 29,900 450 Climbing Oakland Center
03:16AM 35.6286 -120.7078 325° Northwest 473 544 30,000 50 Climbing Oakland Center
03:17AM 35.7353 -120.7997 325° Northwest 473 544 30,000 -50 Level Oakland Center
03:18AM 35.8417 -120.8917 325° Northwest 473 544 29,900 -50 Descending Oakland Center
03:19AM 35.9522 -120.9864 325° Northwest 473 544 29,900 50 Level Oakland Center
03:20AM 36.0586 -121.0789 325° Northwest 473 544 30,000 50 Climbing Oakland Center
03:21AM 36.1647 -121.1717 326° Northwest 473 544 30,000 -50 Level Oakland Center
03:22AM 36.2753 -121.2647 325° Northwest 473 544 29,900 -50 Descending Oakland Center
03:23AM 36.3814 -121.3578 325° Northwest 473 544 29,900 50 Level Oakland Center
03:24AM 36.4875 -121.4489 324° Northwest 473 544 30,000  Climbing Oakland Center
03:25AM 36.5914 -121.5425 325° Northwest 473 544 29,900 -50 Descending Oakland Center
03:26AM 36.6992 -121.6367 326° Northwest 473 544 29,900  Level Oakland Center
03:27AM 36.8072 -121.7283 324° Northwest 473 544 29,900 50 Level Oakland Center
03:28AM 36.9067 -121.8203 325° Northwest 468 539 30,000  Climbing Oakland Center
03:29AM 37.0122 -121.9125 324° Northwest 468 539 29,900 -50 Descending Oakland Center
03:30AM 37.1181 -122.0075 325° Northwest 468 539 29,900 50 Level Oakland Center
03:31AM 37.2236 -122.1003 326° Northwest 468 539 30,000 50 Climbing Oakland Center
03:32AM 37.3289 -122.1906 324° Northwest 468 539 30,000  Level Oakland Center
03:33AM 37.4344 -122.2864 324° Northwest 468 539 30,000 -50 Level Oakland Center
03:34AM 37.5375 -122.3800 324° Northwest 468 539 29,900 -50 Descending Oakland Center
03:35AM 37.6428 -122.4764 324° Northwest 473 544 29,900  Level Oakland Center
03:36AM 37.7436 -122.5678 323° Northwest 473 544 29,900 50 Level Oakland Center
03:37AM 37.8467 -122.6672 325° Northwest 467 537 30,000 50 Climbing Oakland Center
03:38AM 37.9497 -122.7592 327° Northwest 467 537 30,000 -50 Level Oakland Center
03:39AM 38.0628 -122.8542 339° North 467 537 29,900 -50 Descending Oakland Center
03:40AM 38.1808 -122.9128 338° Northwest 460 529 29,900 50 Level Oakland Center
03:41AM 38.2842 -122.9658 333° Northwest 460 529 30,000 50 Climbing Oakland Center
03:42AM 38.3975 -123.0406 332° Northwest 454 522 30,000  Level Oakland Center
03:43AM 38.5089 -123.1153 333° Northwest 454 522 30,000 -50 Level Oakland Center
03:44AM 38.6222 -123.1903 331° Northwest 454 522 29,900 -50 Descending Oakland Center
03:45AM 38.7314 -123.2683 333° Northwest 449 517 29,900 50 Level Oakland Center
03:46AM 38.8444 -123.3439 331° Northwest 449 517 30,000 50 Climbing Oakland Center
03:47AM 38.9556 -123.4222 332° Northwest 449 517 30,000 -50 Level Oakland Center
03:48AM 39.0686 -123.4983 333° Northwest 449 517 29,900  Descending Oakland Center
03:49AM 39.1797 -123.5719 329° Northwest 449 517 30,000  Climbing Oakland Center
03:50AM 39.2964 -123.6619 332° Northwest 449 517 29,900 -50 Descending Oakland Center
03:51AM 39.4094 -123.7389 332° Northwest 454 522 29,900  Level Oakland Center
03:52AM 39.5181 -123.8131 332° Northwest 454 522 29,900 43 Level Oakland Center
03:53AM 39.6522 -123.9072 332° Northwest 453 521 30,000 43 Climbing Seattle Center
03:54AM 39.7628 -123.9847 331° Northwest 452 520 30,000 198 Level Seattle Center
03:55AM 39.8725 -124.0625 331° Northwest 450 518 30,400 550 Climbing Seattle Center
03:56AM 39.9833 -124.1411 332° Northwest 452 520 31,100 800 Climbing Seattle Center
03:57AM 40.0939 -124.2194 332° Northwest 451 519 32,000 450 Climbing Seattle Center
03:58AM 40.2036 -124.2972 331° Northwest 447 514 32,000  Level Seattle Center
03:59AM 40.3075 -124.3722 331° Northwest 442 509 32,000  Level Seattle Center
04:00AM 40.4156 -124.4503 331° Northwest 442 509 32,000  Level Seattle Center
04:01AM 40.5250 -124.5294 331° Northwest 445 512 32,000 -50 Level Seattle Center
04:02AM 40.6411 -124.6136 331° Northwest 446 513 31,900 -50 Descending Seattle Center
04:03AM 40.7494 -124.6919 331° Northwest 444 511 31,900 50 Level Seattle Center
04:04AM 40.8569 -124.7714 331° Northwest 443 510 32,000  Climbing Seattle Center
04:05AM 40.9647 -124.8503 331° Northwest 442 509 31,900  Descending Seattle Center
04:06AM 41.0714 -124.9286 331° Northwest 441 507 32,000 50 Climbing Seattle Center
04:07AM 41.1783 -125.0081 331° Northwest 440 506 32,000 -50 Level Seattle Center
04:08AM 41.2847 -125.0875 331° Northwest 440 506 31,900  Descending Seattle Center
04:09AM 41.3903 -125.1653 331° Northwest 437 503 32,000  Climbing Seattle Center
04:10AM 41.4975 -125.2458 331° Northwest 440 506 31,900  Descending Seattle Center
04:11AM 41.6044 -125.3253 330° Northwest 439 505 32,000 50 Climbing Seattle Center
04:12AM 41.7086 -125.4050 330° Northwest 434 499 32,000 -50 Level Seattle Center
04:13AM 41.8108 -125.4833 331° Northwest 428 493 31,900 -50 Descending Seattle Center
04:14AM 41.9156 -125.5606 330° Northwest 429 494 31,900  Level Seattle Center
04:15AM 42.0183 -125.6400 331° Northwest 428 493 31,900  Level Seattle Center
04:16AM 42.1211 -125.7183 331° Northwest 425 489 31,900  Level Seattle Center
04:17AM 42.2233 -125.7961 330° Northwest 424 488 31,900 50 Level Seattle Center
04:18AM 42.3244 -125.8747 330° Northwest 421 484 32,000 50 Climbing Seattle Center
04:19AM 42.4244 -125.9525 330° Northwest 418 481 32,000 -50 Level Seattle Center
04:20AM 42.5239 -126.0294 330° Northwest 414 476 31,900 -50 Descending Seattle Center
04:21AM 42.6239 -126.1081 330° Northwest 414 476 31,900 50 Level Seattle Center
04:22AM 42.7244 -126.1864 335° Northwest 416 479 32,000 50 Climbing Seattle Center
04:23AM 42.8286 -126.2533 334° Northwest 415 478 32,000  Level Seattle Center
04:24AM 42.9358 -126.3233 334° Northwest 417 480 32,000 -50 Level Seattle Center
04:25AM 43.0411 -126.3928 334° Northwest 418 481 31,900  Descending Seattle Center
04:26AM 43.1458 -126.4625 335° Northwest 419 482 32,000 20 Climbing Seattle Center
04:30AM 43.4333 -126.6500 334° Northwest 441 507 32,000  Level Oakland Oceanic (ODAPS)
05:12AM 47.8000 -129.8833 326° Northwest 440 506 32,000  Level Vancouver Center
05:13AM 47.9000 -129.9833 334° Northwest 440 506 32,000  Level Vancouver Center
05:14AM 48.0167 -130.0667 335° Northwest 440 506 32,000  Level Vancouver Center
05:15AM 48.1333 -130.1500 326° Northwest 440 506 32,000  Level Vancouver Center
05:16AM 48.2333 -130.2500 331° Northwest 440 506 32,000  Level Vancouver Center
05:17AM 48.3333 -130.3333 335° Northwest 440 506 32,000  Level Vancouver Center
05:18AM 48.4500 -130.4167 322° Northwest 440 506 32,000  Level Vancouver Center
05:19AM 48.5333 -130.5167 335° Northwest 440 506 32,000  Level Vancouver Center
05:20AM 48.6500 -130.6000 331° Northwest 430 495 32,000  Level Vancouver Center
05:21AM 48.7667 -130.7000 342° North 440 506 32,000  Level Vancouver Center
05:22AM 48.8667 -130.7500 323° Northwest 440 506 32,000  Level Vancouver Center
05:23AM 48.9667 -130.8667 335° Northwest 440 506 32,000  Level Vancouver Center
05:24AM 49.0833 -130.9500 335° Northwest 440 506 32,000  Level Vancouver Center
05:25AM 49.2000 -131.0333 322° Northwest 440 506 32,000  Level Vancouver Center
05:26AM 49.2833 -131.1333 335° Northwest 440 506 32,000  Level Vancouver Center
05:27AM 49.4000 -131.2167 331° Northwest 440 506 32,000  Level Vancouver Center
05:28AM 49.5167 -131.3167 327° Northwest 440 506 32,000  Level Vancouver Center
05:29AM 49.6000 -131.4000 334° Northwest 440 506 32,000  Level Vancouver Center
05:30AM 49.7333 -131.5000 327° Northwest 450 518 32,000  Level Vancouver Center
05:31AM 49.8333 -131.6000 327° Northwest 440 506 32,000  Level Vancouver Center
05:32AM 49.9333 -131.7000 335° Northwest 450 518 32,000  Level Vancouver Center
05:33AM 50.0500 -131.7833 331° Northwest 450 518 32,000  Level Vancouver Center
05:34AM 50.1667 -131.8833 323° Northwest 450 518 32,000  Level Vancouver Center
05:35AM 50.2500 -131.9833 327° Northwest 450 518 32,000  Level Vancouver Center
05:36AM 50.3667 -132.1000 328° Northwest 440 506 32,000  Level Vancouver Center
05:37AM 50.4667 -132.2000 328° Northwest 450 518 32,000  Level Vancouver Center
05:38AM 50.5667 -132.3000 332° Northwest 450 518 32,000  Level Vancouver Center
05:39AM 50.6833 -132.4000 328° Northwest 450 518 32,000  Level Vancouver Center
05:40AM 50.7833 -132.5000 324° Northwest 450 518 32,000  Level Vancouver Center
05:41AM 50.9000 -132.6333 328° Northwest 450 518 32,000  Level Vancouver Center
05:42AM 50.9833 -132.7167 328° Northwest 450 518 32,000  Level Vancouver Center
05:43AM 51.1000 -132.8333 328° Northwest 450 518 32,000  Level Vancouver Center
05:44AM 51.2000 -132.9333 328° Northwest 450 518 32,000  Level Vancouver Center
05:45AM 51.3167 -133.0500 324° Northwest 460 529 32,000  Level Vancouver Center
05:46AM 51.4167 -133.1667 328° Northwest 460 529 32,000  Level Vancouver Center
05:47AM 51.5333 -133.2833 324° Northwest 460 529 32,000  Level Vancouver Center
05:48AM 51.6333 -133.4000 332° Northwest 470 541 32,000  Level Vancouver Center
05:49AM 51.7500 -133.5000 321° Northwest 470 541 32,000  Level Vancouver Center
05:50AM 51.8500 -133.6333 332° Northwest 470 541 32,000  Level Vancouver Center
05:51AM 51.9667 -133.7333 321° Northwest 470 541 32,000  Level Vancouver Center
05:52AM 52.0667 -133.8667 328° Northwest 480 552 32,000  Level Vancouver Center
05:53AM 52.1833 -133.9833 325° Northwest 480 552 32,000  Level Vancouver Center
05:54AM 52.3000 -134.1167 332° Northwest 480 552 32,000  Level Vancouver Center
05:55AM 52.4167 -134.2167 321° Northwest 480 552 32,000  Level Vancouver Center
05:56AM 52.5167 -134.3500 325° Northwest 480 552 32,000  Level Vancouver Center
05:57AM 52.6167 -134.4667 325° Northwest 480 552 32,000  Level Vancouver Center
05:58AM 52.7333 -134.6000 329° Northwest 470 541 32,000  Level Vancouver Center
05:59AM 52.8500 -134.7167 316° Northwest 480 552 32,000  Level Vancouver Center
06:00AM 52.9333 -134.8500 332° Northwest 480 552 32,000  Level Vancouver Center
06:01AM 53.0667 -134.9667 325° Northwest 480 552 32,000  Level Vancouver Center
06:02AM 53.1667 -135.0833 326° Northwest 480 552 32,000  Level Vancouver Center
06:03AM 53.2833 -135.2167 325° Northwest 470 541 32,000  Level Vancouver Center
06:04AM 53.3833 -135.3333 322° Northwest 480 552 32,000  Level Vancouver Center
06:05AM 53.4833 -135.4667 329° Northwest 470 541 32,000  Level Vancouver Center
06:06AM 53.6167 -135.6000 317° Northwest 480 552 32,000  Level Vancouver Center
06:07AM 53.7000 -135.7333 329° Northwest 470 541 32,000  Level Vancouver Center
06:08AM 53.8167 -135.8500 323° Northwest 480 552 32,000  Level Vancouver Center
06:09AM 53.9333 -136.0000 322° Northwest 470 541 32,000  Level Vancouver Center
06:10AM 54.0333 -136.1333 319° Northwest 480 552 32,000  Level Vancouver Center
06:11AM 54.1333 -136.2833 314° West 480 552 32,000  Level Vancouver Center
06:12AM 54.2167 -136.4333 322° Northwest 480 552 32,000  Level Vancouver Center
06:13AM 54.3167 -136.5667 313° West 490 564 32,000  Level Vancouver Center
06:14AM 54.4167 -136.7500 319° Northwest 490 564 32,000  Level Vancouver Center
06:15AM 54.5167 -136.9000 322° Northwest 490 564 32,000  Level Vancouver Center
06:16AM 54.6167 -137.0333 314° West 490 564 32,000  Level Vancouver Center
06:17AM 54.7000 -137.1833 319° Northwest 480 552 32,000  Level Vancouver Center
06:18AM 54.8000 -137.3333 314° West 490 564 32,000  Level Vancouver Center
06:19AM 54.9000 -137.5167 325° Northwest 490 564 32,000  Level Vancouver Center
06:20AM 55.0500 -137.7000 307° West 480 552 32,000  Level Anchorage Center
06:21AM 55.1000 -137.8167 309° West 480 552 32,000  Level Vancouver Center
06:22AM 55.1833 -138.0000 320° Northwest 480 552 32,000  Level Vancouver Center
06:23AM 55.2833 -138.1500 320° Northwest 480 552 32,000  Level Vancouver Center
06:24AM 55.3833 -138.3000 314° West 480 552 32,000  Level Vancouver Center
06:25AM 55.4833 -138.4833 317° Northwest 480 552 32,000  Level Vancouver Center
06:26AM 55.5833 -138.6500 349° North 480 552 32,000  Level Vancouver Center
06:26AM 55.6333 -138.6667 317° Northwest 480 552 32,000  Level Anchorage Center
06:27AM 55.7333 -138.8333 290° West 480 552 32,000  Level Anchorage Center
06:28AM 55.7667 -139.0000 315° West 480 552 32,000  Level Vancouver Center
06:29AM 55.8500 -139.1500 352° North 480 552 32,000  Level Vancouver Center
06:29AM 55.9167 -139.1667 314° West 490 564 32,000  Level Anchorage Center
06:30AM 56.0167 -139.3500 317° Northwest 480 552 32,000  Level Anchorage Center
06:31AM 56.1167 -139.5167 312° West 480 552 32,000  Level Anchorage Center
06:32AM 56.2000 -139.6833 317° Northwest 470 541 32,000  Level Anchorage Center
06:33AM 56.3000 -139.8500 315° West 480 552 32,000  Level Anchorage Center
06:34AM 56.4000 -140.0333 312° West 490 564 32,000  Level Anchorage Center
06:35AM 56.4833 -140.2000 315° West 480 552 32,000  Level Anchorage Center
06:36AM 56.5833 -140.3833 318° Northwest 490 564 32,000  Level Anchorage Center
06:37AM 56.6833 -140.5500 315° West 480 552 32,000  Level Anchorage Center
06:38AM 56.7667 -140.7000 310° West 490 564 32,000  Level Anchorage Center
06:39AM 56.8667 -140.9167 316° Northwest 470 541 32,000  Level Anchorage Center
06:40AM 56.9500 -141.0667 315° West 480 552 32,000  Level Anchorage Center
06:41AM 57.0667 -141.2833 310° West 490 564 32,000  Level Anchorage Center
06:42AM 57.1500 -141.4667 315° West 490 564 32,000  Level Anchorage Center
06:43AM 57.2500 -141.6500 315° West 490 564 32,000  Level Anchorage Center
06:44AM 57.3500 -141.8333 310° West 480 552 32,000  Level Anchorage Center
06:45AM 57.4333 -142.0167 315° West 490 564 32,000  Level Anchorage Center
06:46AM 57.5333 -142.2000 310° West 480 552 32,000  Level Anchorage Center
06:47AM 57.6167 -142.3833 316° Northwest 480 552 32,000  Level Anchorage Center
06:48AM 57.7167 -142.5667 311° West 480 552 32,000  Level Anchorage Center
06:49AM 57.8000 -142.7500 311° West 480 552 32,000  Level Anchorage Center
06:50AM 57.8833 -142.9333 313° West 480 552 32,000  Level Anchorage Center
06:51AM 57.9833 -143.1333 311° West 480 552 32,000  Level Anchorage Center
06:52AM 58.0667 -143.3167 311° West 480 552 32,000 198 Level Anchorage Center
06:53AM 58.1500 -143.5000 316° Northwest 470 541 32,400 650 Climbing Anchorage Center
06:54AM 58.2500 -143.6833 308° West 480 552 33,300 800 Climbing Anchorage Center
06:55AM 58.3333 -143.8833 311° West 470 541 34,000 347 Climbing Anchorage Center
06:56AM 58.4167 -144.0667 314° West 470 541 34,000  Level Anchorage Center
06:57AM 58.5167 -144.2667 311° West 480 552 34,000  Level Anchorage Center
06:58AM 58.6000 -144.4500 309° West 470 541 34,000  Level Anchorage Center
06:59AM 58.6833 -144.6500 309° West 470 541 34,000  Level Anchorage Center
07:00AM 58.7667 -144.8500 311° West 470 541 34,000  Level Anchorage Center
07:01AM 58.8500 -145.0333 314° West 470 541 34,000  Level Anchorage Center
07:02AM 58.9500 -145.2333 309° West 480 552 34,000  Level Anchorage Center
07:03AM 59.0333 -145.4333 309° West 480 552 34,000  Level Anchorage Center
07:04AM 59.1167 -145.6333 309° West 480 552 34,000  Level Anchorage Center
07:05AM 59.2000 -145.8333 307° West 480 552 34,000  Level Anchorage Center
07:06AM 59.2833 -146.0500 309° West 480 552 34,000  Level Anchorage Center
07:07AM 59.3667 -146.2500 317° Northwest 470 541 34,000  Level Anchorage Center
07:08AM 59.4667 -146.4333 315° West 470 541 34,000  Level Anchorage Center
07:09AM 59.5500 -146.6000 317° Northwest 470 541 34,000  Level Anchorage Center
07:10AM 59.6500 -146.7833 312° West 480 552 34,000  Level Anchorage Center
07:11AM 59.7333 -146.9667 317° Northwest 470 541 34,000  Level Anchorage Center
07:12AM 59.8333 -147.1500 312° West 480 552 34,000  Level Anchorage Center
07:13AM 59.9167 -147.3333 318° Northwest 470 541 34,000  Level Anchorage Center
07:14AM 60.0167 -147.5167 315° West 470 541 34,000  Level Anchorage Center
07:15AM 60.1167 -147.7167 312° West 470 541 34,000  Level Anchorage Center
07:16AM 60.2000 -147.9000 317° Northwest 470 541 34,000  Level Anchorage Center
07:17AM 60.3167 -148.1167 310° West 470 541 34,000  Level Anchorage Center
07:18AM 60.4000 -148.3167 318° Northwest 460 529 34,000  Level Anchorage Center
07:19AM 60.5000 -148.5000 313° West 460 529 34,000  Level Anchorage Center
07:20AM 60.5833 -148.6833 313° West 460 529 34,000  Level Anchorage Center
07:21AM 60.6667 -148.8667 311° West 460 529 34,000  Level Anchorage Center
07:22AM 60.7500 -149.0667 316° Northwest 460 529 34,000  Level Anchorage Center
07:23AM 60.8500 -149.2667 313° West 470 541 34,000  Level Anchorage Center
07:24AM 60.9333 -149.4500 311° West 460 529 34,000  Level Anchorage Center
07:25AM 61.0167 -149.6500 319° Northwest 460 529 34,000  Level Anchorage Center
07:26AM 61.1167 -149.8333 309° West 460 529 34,000  Level Anchorage Center
07:28AM 61.2000 -150.0500 307° West 470 541 34,000  Level Anchorage Center
07:29AM 61.2833 -150.2833 307° West 470 541 34,000  Level Anchorage Center
07:30AM 61.3667 -150.5167 300° West 470 541 34,000  Level Anchorage Center
07:31AM 61.4167 -150.7000 309° West 460 529 34,000  Level Anchorage Center
07:32AM 61.5000 -150.9167 303° West 460 529 34,000  Level Anchorage Center
07:33AM 61.5667 -151.1333 307° West 460 529 34,000  Level Anchorage Center
07:34AM 61.6500 -151.3667 304° West 460 529 34,000  Level Anchorage Center
07:35AM 61.7333 -151.6333 303° West 460 529 34,000  Level Anchorage Center
07:36AM 61.8000 -151.8500 307° West 470 541 34,000  Level Anchorage Center
07:37AM 61.8833 -152.0833 303° West 460 529 34,000  Level Anchorage Center
07:38AM 61.9500 -152.3000 307° West 460 529 34,000  Level Anchorage Center
07:39AM 62.0333 -152.5333 298° West 460 529 34,000  Level Anchorage Center
07:40AM 62.0833 -152.7333 310° West 460 529 34,000  Level Anchorage Center
07:41AM 62.1667 -152.9500 302° West 460 529 34,000  Level Anchorage Center
07:42AM 62.2333 -153.1833 304° West 460 529 34,000  Level Anchorage Center
07:43AM 62.3167 -153.4500 302° West 470 541 34,000  Level Anchorage Center
07:44AM 62.3833 -153.6833 302° West 460 529 34,000  Level Anchorage Center
07:45AM 62.4500 -153.9167 308° West 460 529 34,000  Level Anchorage Center
07:46AM 62.5333 -154.1500 302° West 460 529 34,000  Level Anchorage Center
07:47AM 62.6000 -154.3833 300° West 460 529 34,000  Level Anchorage Center
07:48AM 62.6667 -154.6333 304° West 460 529 34,000  Level Anchorage Center
07:49AM 62.7333 -154.8500 300° West 450 518 34,000  Level Anchorage Center
07:50AM 62.8000 -155.1000 302° West 450 518 34,000  Level Anchorage Center
07:51AM 62.8667 -155.3333 302° West 450 518 34,000  Level Anchorage Center
07:52AM 62.9333 -155.5667 294° West 450 518 34,000  Level Anchorage Center
07:53AM 62.9833 -155.8167 295° West 450 518 34,000  Level Anchorage Center
07:54AM 63.0333 -156.0500 294° West 450 518 34,000  Level Anchorage Center
07:55AM 63.0833 -156.3000 294° West 450 518 34,000  Level Anchorage Center
07:56AM 63.1333 -156.5500 294° West 450 518 34,000  Level Anchorage Center
07:57AM 63.1833 -156.8000 294° West 440 506 34,000  Level Anchorage Center
07:58AM 63.2333 -157.0500 293° West 440 506 34,000  Level Anchorage Center
07:59AM 63.2833 -157.3167 294° West 440 506 34,000  Level Anchorage Center
08:00AM 63.3333 -157.5667 294° West 450 518 34,000  Level Anchorage Center
08:01AM 63.3833 -157.8167 293° West 440 506 34,000  Level Anchorage Center
08:02AM 63.4333 -158.0833 294° West 440 506 34,000  Level Anchorage Center
08:03AM 63.4833 -158.3333 293° West 450 518 34,000  Level Anchorage Center
08:04AM 63.5333 -158.6000 287° West 450 518 34,000  Level Anchorage Center
08:05AM 63.5667 -158.8500 295° West 450 518 34,000  Level Anchorage Center
08:06AM 63.6333 -159.1667 293° West 450 518 34,000  Level Anchorage Center
08:07AM 63.6833 -159.4333 286° West 460 529 34,000  Level Anchorage Center
08:08AM 63.7167 -159.7000 293° West 450 518 34,000  Level Anchorage Center
08:09AM 63.7667 -159.9667 293° West 460 529 34,000  Level Anchorage Center
08:10AM 63.8167 -160.2333 286° West 460 529 34,000  Level Anchorage Center
08:11AM 63.8500 -160.5000 292° West 450 518 34,000  Level Anchorage Center
08:12AM 63.9000 -160.7833 293° West 450 518 34,000  Level Anchorage Center
08:13AM 63.9500 -161.0500 285° West 450 518 34,000  Level Anchorage Center
08:14AM 63.9833 -161.3333 286° West 450 518 34,000  Level Anchorage Center
08:15AM 64.0167 -161.6000 292° West 460 529 34,000  Level Anchorage Center
08:16AM 64.0667 -161.8833 279° West 450 518 34,000  Level Anchorage Center
08:17AM 64.0833 -162.1167 290° West 440 506 34,000  Level Anchorage Center
08:18AM 64.1333 -162.4333 288° West 450 518 34,000  Level Anchorage Center
08:19AM 64.1667 -162.6667 286° West 450 518 34,000  Level Anchorage Center
08:20AM 64.2000 -162.9333 285° West 440 506 34,000  Level Anchorage Center
08:21AM 64.2333 -163.2167 285° West 450 518 34,000  Level Anchorage Center
08:22AM 64.2667 -163.5000 286° West 450 518 34,000  Level Anchorage Center
08:23AM 64.3000 -163.7667 286° West 440 506 34,000  Level Anchorage Center
08:24AM 64.3333 -164.0333 285° West 440 506 34,000  Level Anchorage Center
08:25AM 64.3667 -164.3167 289° West 440 506 34,000  Level Anchorage Center
08:26AM 64.4167 -164.6500 286° West 440 506 34,000  Level Anchorage Center
08:27AM 64.4500 -164.9167 285° West 440 506 34,000  Level Anchorage Center
08:28AM 64.4833 -165.2000 270° West 440 506 34,000  Level Anchorage Center
08:29AM 64.4833 -165.4833 270° West 430 495 34,000  Level Anchorage Center
08:30AM 64.4833 -165.7667 270° West 440 506 34,000  Level Anchorage Center
08:31AM 64.4833 -166.0667 270° West 450 518 34,000  Level Anchorage Center
08:32AM 64.4833 -166.3500 270° West 450 518 34,000  Level Anchorage Center
08:33AM 64.4833 -166.6333 270° West 440 506 34,000  Level Anchorage Center
08:34AM 64.4833 -166.9333 262° West 440 506 34,000  Level Anchorage Center
08:35AM 64.4667 -167.2167 270° West 450 518 34,000  Level Anchorage Center
08:36AM 64.4667 -167.5000 270° West 440 506 34,000  Level Anchorage Center
08:37AM 64.4667 -167.7833 270° West 440 506 34,000  Level Anchorage Center
08:38AM 64.4667 -168.0833 262° West 450 518 34,000  Level Anchorage Center
08:39AM 64.4500 -168.3500 270° West 440 506 34,000  Level Anchorage Center
08:40AM 64.4500 -168.6500 270° West 440 506 34,000  Level Anchorage Center
08:41AM 64.4500 -168.9333 262° West 440 506 34,000  Level Anchorage Center
08:42AM 64.4333 -169.2167 270° West 440 506 34,000  Level Anchorage Center
08:43AM 64.4333 -169.5000 270° West 440 506 34,000  Level Anchorage Center
08:44AM 64.4333 -169.7833 262° West 440 506 34,000  Level Anchorage Center
08:45AM 64.4167 -170.0667 270° West 440 506 34,000  Level Anchorage Center
08:46AM 64.4167 -170.3500 262° West 440 506 34,000  Level Anchorage Center
08:47AM 64.4000 -170.6333 269° West 440 506 34,000  Level Anchorage Center
08:55AM 64.3680 -172.8931 279° West  Level FlightAware Approximate
08:56AM 64.3868 -173.1799 261° West  Level FlightAware Approximate
08:57AM 64.3674 -173.4525 279° West  Level FlightAware Approximate
08:58AM 64.3878 -173.7388 279° West  Level FlightAware Approximate
08:59AM 64.4077 -174.0254 279° West  Level FlightAware Approximate
09:00AM 64.4269 -174.3125 242° Southwest  Level FlightAware Approximate
09:01AM 64.3742 -174.5375 279° West  Level FlightAware Approximate
09:02AM 64.3943 -174.8240 279° West  Level FlightAware Approximate
09:03AM 64.4138 -175.1108 279° West  Level FlightAware Approximate
09:04AM 64.4328 -175.3980 279° West  Level FlightAware Approximate
09:05AM 64.4512 -175.6857 278° West  Level FlightAware Approximate
09:06AM 64.4690 -175.9737 278° West  Level FlightAware Approximate
09:07AM 64.4863 -176.2621 278° West  Level FlightAware Approximate
09:08AM 64.5030 -176.5508 278° West  Level FlightAware Approximate
09:09AM 64.5191 -176.8399 277° West  Level FlightAware Approximate
09:10AM 64.5347 -177.1293 277° West  Level FlightAware Approximate
09:11AM 64.5497 -177.4191 277° West  Level FlightAware Approximate
09:12AM 64.5641 -177.7092 276° West  Level FlightAware Approximate
09:13AM 64.5780 -177.9995 276° West  Level FlightAware Approximate
09:14AM 64.5913 -178.2902 276° West  Level FlightAware Approximate
09:15AM 64.6040 -178.5811 276° West  Level FlightAware Approximate
09:16AM 64.6162 -178.8723 275° West  Level FlightAware Approximate
09:17AM 64.6277 -179.1638 275° West  Level FlightAware Approximate
09:18AM 64.6387 -179.4555 275° West  Level FlightAware Approximate
09:19AM 64.6492 -179.7474 275° West  Level FlightAware Approximate
09:20AM 64.6590 179.9604 277° West  Level FlightAware Approximate
09:21AM 64.6747 179.6701 274° West  Level FlightAware Approximate
09:22AM 64.6833 179.3775 274° West  Level FlightAware Approximate
09:23AM 64.6913 179.0847 274° West  Level FlightAware Approximate
09:24AM 64.6988 178.7917 273° West  Level FlightAware Approximate
09:25AM 64.7057 178.4986 273° West  Level FlightAware Approximate
09:26AM 64.7120 178.2053 273° West  Level FlightAware Approximate
09:27AM 64.7177 177.9119 278° West  Level FlightAware Approximate
09:28AM 64.7348 177.6219 261° West  Level FlightAware Approximate
09:29AM 64.7157 177.3315 261° West  Level FlightAware Approximate
09:30AM 64.6959 177.0415 261° West  Level FlightAware Approximate
09:31AM 64.6756 176.7520 261° West  Level FlightAware Approximate
09:32AM 64.6547 176.4630 260° West  Level FlightAware Approximate
09:33AM 64.6333 176.1743 260° West  Level FlightAware Approximate
09:34AM 64.6113 175.8862 260° West  Level FlightAware Approximate
09:35AM 64.5887 175.5984 260° West  Level FlightAware Approximate
09:36AM 64.5656 175.3112 259° West  Level FlightAware Approximate
09:37AM 64.5419 175.0245 259° West  Level FlightAware Approximate
09:38AM 64.5177 174.7383 259° West  Level FlightAware Approximate
09:39AM 64.4929 174.4526 258° West  Level FlightAware Approximate
09:40AM 64.4676 174.1674 258° West  Level FlightAware Approximate
09:41AM 64.4417 173.8827 258° West  Level FlightAware Approximate
09:42AM 64.4153 173.5986 258° West  Level FlightAware Approximate
09:43AM 64.3883 173.3151 257° West  Level FlightAware Approximate
09:44AM 64.3607 173.0321 252° West  Level FlightAware Approximate
09:45AM 64.3208 172.7574 251° West  Level FlightAware Approximate
09:46AM 64.2804 172.4835 251° West  Level FlightAware Approximate
09:47AM 64.2395 172.2105 251° West  Level FlightAware Approximate
09:48AM 64.1981 171.9382 251° West  Level FlightAware Approximate
09:49AM 64.1579 171.6654 251° West  Level FlightAware Approximate
09:50AM 64.1171 171.3934 251° West  Level FlightAware Approximate
09:51AM 64.0759 171.1223 251° West  Level FlightAware Approximate
09:52AM 64.0341 170.8519 250° West  Level FlightAware Approximate
09:53AM 63.9918 170.5823 250° West  Level FlightAware Approximate
09:54AM 63.9490 170.3136 250° West  Level FlightAware Approximate
09:55AM 63.9058 170.0457 250° West  Level FlightAware Approximate
09:56AM 63.8620 169.7786 249° West  Level FlightAware Approximate
09:57AM 63.8178 169.5123 249° West  Level FlightAware Approximate
09:58AM 63.7730 169.2469 249° West  Level FlightAware Approximate
09:59AM 63.7278 168.9823 249° West  Level FlightAware Approximate
10:00AM 63.6821 168.7186 249° West  Level FlightAware Approximate
10:01AM 63.6359 168.4557 248° West  Level FlightAware Approximate
10:02AM 63.5893 168.1937 248° West  Level FlightAware Approximate
10:03AM 63.5421 167.9326 248° West  Level FlightAware Approximate
10:04AM 63.4945 167.6723 248° West  Level FlightAware Approximate
10:05AM 63.4464 167.4129 247° West  Level FlightAware Approximate
10:06AM 63.3979 167.1543 247° West  Level FlightAware Approximate
10:07AM 63.3489 166.8967 247° West  Level FlightAware Approximate
10:08AM 63.2994 166.6399 247° West  Level FlightAware Approximate
10:09AM 63.2494 166.3840 246° West  Level FlightAware Approximate
10:10AM 63.1990 166.1290 246° West  Level FlightAware Approximate
10:11AM 63.1482 165.8749 246° West  Level FlightAware Approximate
10:12AM 63.0969 165.6216 246° West  Level FlightAware Approximate
10:13AM 63.0451 165.3693 246° West  Level FlightAware Approximate
10:14AM 62.9929 165.1179 245° Southwest  Level FlightAware Approximate
10:15AM 62.9403 164.8674 245° Southwest  Level FlightAware Approximate
10:16AM 62.8872 164.6178 245° Southwest  Level FlightAware Approximate
10:17AM 62.8337 164.3690 245° Southwest  Level FlightAware Approximate
10:18AM 62.7797 164.1212 244° Southwest  Level FlightAware Approximate
10:19AM 62.7253 163.8743 244° Southwest  Level FlightAware Approximate
10:20AM 62.6705 163.6284 244° Southwest  Level FlightAware Approximate
10:21AM 62.6152 163.3833 244° Southwest  Level FlightAware Approximate
10:22AM 62.5595 163.1391 244° Southwest  Level FlightAware Approximate
10:23AM 62.5034 162.8959 243° Southwest  Level FlightAware Approximate
10:24AM 62.4469 162.6535 243° Southwest  Level FlightAware Approximate
10:25AM 62.3899 162.4121 243° Southwest  Level FlightAware Approximate
10:26AM 62.3325 162.1716 243° Southwest  Level FlightAware Approximate
10:27AM 62.2748 161.9321 242° Southwest  Level FlightAware Approximate
10:28AM 62.2166 161.6934 242° Southwest  Level FlightAware Approximate
10:29AM 62.1580 161.4557 242° Southwest  Level FlightAware Approximate
10:30AM 62.0990 161.2189 242° Southwest  Level FlightAware Approximate
10:31AM 62.0396 160.9830 242° Southwest  Level FlightAware Approximate
10:32AM 61.9797 160.7480 241° Southwest  Level FlightAware Approximate
10:33AM 61.9195 160.5140 242° Southwest  Level FlightAware Approximate
10:34AM 61.8609 160.2786 242° Southwest  Level FlightAware Approximate
10:35AM 61.8018 160.0442 242° Southwest  Level FlightAware Approximate
10:36AM 61.7424 159.8106 242° Southwest  Level FlightAware Approximate
10:37AM 61.6825 159.5780 241° Southwest  Level FlightAware Approximate
10:38AM 61.6222 159.3462 241° Southwest  Level FlightAware Approximate
10:39AM 61.5616 159.1154 241° Southwest  Level FlightAware Approximate
10:40AM 61.5006 158.8855 241° Southwest  Level FlightAware Approximate
10:41AM 61.4392 158.6564 241° Southwest  Level FlightAware Approximate
10:42AM 61.3773 158.4283 240° Southwest  Level FlightAware Approximate
10:43AM 61.3152 158.2011 240° Southwest  Level FlightAware Approximate
10:44AM 61.2526 157.9748 240° Southwest  Level FlightAware Approximate
10:45AM 61.1897 157.7494 240° Southwest  Level FlightAware Approximate
10:46AM 61.1264 157.5248 240° Southwest  Level FlightAware Approximate
10:47AM 61.0627 157.3012 239° Southwest  Level FlightAware Approximate
10:48AM 60.9987 157.0785 239° Southwest  Level FlightAware Approximate
10:49AM 60.9343 156.8567 239° Southwest  Level FlightAware Approximate
10:50AM 60.8695 156.6358 239° Southwest  Level FlightAware Approximate
10:51AM 60.8044 156.4158 239° Southwest  Level FlightAware Approximate
10:52AM 60.7389 156.1966 238° Southwest  Level FlightAware Approximate
10:53AM 60.6730 155.9784 238° Southwest  Level FlightAware Approximate
10:54AM 60.6068 155.7610 238° Southwest  Level FlightAware Approximate
10:55AM 60.5403 155.5446 238° Southwest  Level FlightAware Approximate
10:56AM 60.4734 155.3290 238° Southwest  Level FlightAware Approximate
10:57AM 60.4061 155.1144 237° Southwest  Level FlightAware Approximate
10:58AM 60.3385 154.9006 237° Southwest  Level FlightAware Approximate
10:59AM 60.2706 154.6877 206° Southwest  Level FlightAware Approximate
11:00AM 60.1705 154.5904 237° Southwest  Level FlightAware Approximate
11:01AM 60.1028 154.3783 237° Southwest  Level FlightAware Approximate
11:02AM 60.0347 154.1671 237° Southwest  Level FlightAware Approximate
11:03AM 59.9664 153.9567 237° Southwest  Level FlightAware Approximate
11:04AM 59.8976 153.7473 237° Southwest  Level FlightAware Approximate
11:05AM 59.8286 153.5387 237° Southwest  Level FlightAware Approximate
11:06AM 59.7592 153.3309 236° Southwest  Level FlightAware Approximate
11:07AM 59.6895 153.1241 236° Southwest  Level FlightAware Approximate
11:08AM 59.6194 152.9180 236° Southwest  Level FlightAware Approximate
11:09AM 59.5491 152.7129 236° Southwest  Level FlightAware Approximate
11:10AM 59.4784 152.5086 236° Southwest  Level FlightAware Approximate
11:11AM 59.4074 152.3051 235° Southwest  Level FlightAware Approximate
11:12AM 59.3361 152.1026 235° Southwest  Level FlightAware Approximate
11:13AM 59.2645 151.9008 235° Southwest  Level FlightAware Approximate
11:14AM 59.1926 151.6999 235° Southwest  Level FlightAware Approximate
11:15AM 59.1203 151.4999 235° Southwest  Level FlightAware Approximate
11:16AM 59.0478 151.3007 235° Southwest  Level FlightAware Approximate
11:17AM 58.9749 151.1023 234° Southwest  Level FlightAware Approximate
11:18AM 58.9018 150.9048 234° Southwest  Level FlightAware Approximate
11:19AM 58.8283 150.7081 234° Southwest  Level FlightAware Approximate
11:20AM 58.7546 150.5123 234° Southwest  Level FlightAware Approximate
11:21AM 58.6805 150.3172 234° Southwest  Level FlightAware Approximate
11:22AM 58.6062 150.1230 234° Southwest  Level FlightAware Approximate
11:23AM 58.5316 149.9297 233° Southwest  Level FlightAware Approximate
11:24AM 58.4566 149.7371 233° Southwest  Level FlightAware Approximate
11:25AM 58.3814 149.5454 233° Southwest  Level FlightAware Approximate
11:26AM 58.3060 149.3545 233° Southwest  Level FlightAware Approximate
11:27AM 58.2302 149.1644 233° Southwest  Level FlightAware Approximate
11:28AM 58.1541 148.9751 233° Southwest  Level FlightAware Approximate
11:29AM 58.0778 148.7867 232° Southwest  Level FlightAware Approximate
11:30AM 58.0012 148.5990 232° Southwest  Level FlightAware Approximate
11:31AM 57.9243 148.4121 232° Southwest  Level FlightAware Approximate
11:32AM 57.8471 148.2261 232° Southwest  Level FlightAware Approximate
11:33AM 57.7697 148.0408 232° Southwest  Level FlightAware Approximate
11:34AM 57.6920 147.8564 232° Southwest  Level FlightAware Approximate
11:35AM 57.6140 147.6727 231° Southwest  Level FlightAware Approximate
11:36AM 57.5358 147.4898 231° Southwest  Level FlightAware Approximate
11:37AM 57.4573 147.3077 231° Southwest  Level FlightAware Approximate
11:38AM 57.3785 147.1263 231° Southwest  Level FlightAware Approximate
11:39AM 57.2995 146.9458 231° Southwest  Level FlightAware Approximate
11:40AM 57.2202 146.7660 231° Southwest  Level FlightAware Approximate
11:41AM 57.1407 146.5870 231° Southwest  Level FlightAware Approximate
11:42AM 57.0609 146.4088 230° Southwest  Level FlightAware Approximate
11:43AM 56.9809 146.2313 230° Southwest  Level FlightAware Approximate
11:44AM 56.9006 146.0546 230° Southwest  Level FlightAware Approximate
11:45AM 56.8200 145.8786 230° Southwest  Level FlightAware Approximate
11:46AM 56.7393 145.7035 230° Southwest  Level FlightAware Approximate
11:47AM 56.6582 145.5290 230° Southwest  Level FlightAware Approximate
11:48AM 56.5770 145.3553 230° Southwest  Level FlightAware Approximate
11:49AM 56.4955 145.1824 229° Southwest  Level FlightAware Approximate
11:50AM 56.4137 145.0102 229° Southwest  Level FlightAware Approximate
11:51AM 56.3317 144.8387 229° Southwest  Level FlightAware Approximate
11:52AM 56.2495 144.6680 229° Southwest  Level FlightAware Approximate
11:55AM 56.0014 144.1602 229° Southwest  Level FlightAware Approximate
11:56AM 55.9183 143.9924 228° Southwest  Level FlightAware Approximate
11:57AM 55.8349 143.8253 228° Southwest  Level FlightAware Approximate
11:58AM 55.7513 143.6589 228° Southwest  Level FlightAware Approximate
11:59AM 55.6675 143.4933 228° Southwest  Level FlightAware Approximate
12:00PM 55.5835 143.3283 228° Southwest  Level FlightAware Approximate
12:01PM 55.4992 143.1641 228° Southwest  Level FlightAware Approximate
12:02PM 55.4147 143.0005 228° Southwest  Level FlightAware Approximate
12:03PM 55.3300 142.8377 227° Southwest  Level FlightAware Approximate
12:04PM 55.2451 142.6755 227° Southwest  Level FlightAware Approximate
12:05PM 55.1600 142.5141 227° Southwest  Level FlightAware Approximate
12:06PM 55.0746 142.3533 227° Southwest  Level FlightAware Approximate
12:07PM 54.9891 142.1932 227° Southwest  Level FlightAware Approximate
12:08PM 54.9036 142.0333 227° Southwest  Level FlightAware Approximate
12:09PM 54.8176 141.8746 227° Southwest  Level FlightAware Approximate
12:10PM 54.7314 141.7165 227° Southwest  Level FlightAware Approximate
12:11PM 54.6451 141.5592 226° Southwest  Level FlightAware Approximate
12:12PM 54.5585 141.4025 226° Southwest  Level FlightAware Approximate
12:13PM 54.4717 141.2464 226° Southwest  Level FlightAware Approximate
12:14PM 54.3847 141.0910 226° Southwest  Level FlightAware Approximate
12:15PM 54.2975 140.9363 226° Southwest  Level FlightAware Approximate
12:16PM 54.2101 140.7822 226° Southwest  Level FlightAware Approximate
12:17PM 54.1225 140.6288 226° Southwest  Level FlightAware Approximate
12:18PM 54.0348 140.4761 226° Southwest  Level FlightAware Approximate
12:19PM 53.9468 140.3239 225° Southwest  Level FlightAware Approximate
12:20PM 53.8586 140.1725 224° Southwest  Level FlightAware Approximate
12:21PM 53.7685 140.0247 232° Southwest  Level FlightAware Approximate
12:22PM 53.6911 139.8578 232° Southwest  Level FlightAware Approximate
12:23PM 53.6134 139.6916 232° Southwest  Level FlightAware Approximate
12:24PM 53.5355 139.5260 232° Southwest  Level FlightAware Approximate
12:25PM 53.4574 139.3609 231° Southwest  Level FlightAware Approximate
12:26PM 53.3791 139.1965 231° Southwest  Level FlightAware Approximate
12:27PM 53.3005 139.0327 231° Southwest  Level FlightAware Approximate
12:28PM 53.2217 138.8695 231° Southwest  Level FlightAware Approximate
12:29PM 53.1427 138.7069 231° Southwest  Level FlightAware Approximate
12:30PM 53.0635 138.5449 231° Southwest  Level FlightAware Approximate
12:31PM 52.9841 138.3835 231° Southwest  Level FlightAware Approximate
12:32PM 52.9044 138.2227 231° Southwest  Level FlightAware Approximate
12:33PM 52.8245 138.0625 230° Southwest  Level FlightAware Approximate
12:34PM 52.7444 137.9028 230° Southwest  Level FlightAware Approximate
12:35PM 52.6641 137.7438 230° Southwest  Level FlightAware Approximate
12:36PM 52.5836 137.5853 230° Southwest  Level FlightAware Approximate
12:37PM 52.5028 137.4274 230° Southwest  Level FlightAware Approximate
12:38PM 52.4219 137.2701 230° Southwest  Level FlightAware Approximate
12:39PM 52.3408 137.1134 230° Southwest  Level FlightAware Approximate
12:40PM 52.2594 136.9572 230° Southwest  Level FlightAware Approximate
12:41PM 52.1778 136.8017 229° Southwest  Level FlightAware Approximate
12:42PM 52.0961 136.6467 229° Southwest  Level FlightAware Approximate
12:43PM 52.0141 136.4922 229° Southwest  Level FlightAware Approximate
12:44PM 51.9319 136.3383 229° Southwest  Level FlightAware Approximate
12:45PM 51.8496 136.1850 229° Southwest  Level FlightAware Approximate
12:46PM 51.7670 136.0323 229° Southwest  Level FlightAware Approximate
12:47PM 51.6842 135.8801 229° Southwest  Level FlightAware Approximate
12:48PM 51.6013 135.7284 229° Southwest  Level FlightAware Approximate
12:49PM 51.5181 135.5773 228° Southwest  Level FlightAware Approximate
12:50PM 51.4348 135.4268 228° Southwest  Level FlightAware Approximate
12:51PM 51.3512 135.2768 228° Southwest  Level FlightAware Approximate
12:52PM 51.2675 135.1274 228° Southwest  Level FlightAware Approximate
12:53PM 51.1836 134.9785 228° Southwest  Level FlightAware Approximate
12:54PM 51.0995 134.8302 228° Southwest  Level FlightAware Approximate
12:55PM 51.0152 134.6823 228° Southwest  Level FlightAware Approximate
12:56PM 50.9307 134.5351 228° Southwest  Level FlightAware Approximate
12:57PM 50.8460 134.3883 227° Southwest  Level FlightAware Approximate
12:58PM 50.7612 134.2421 227° Southwest  Level FlightAware Approximate
12:59PM 50.6761 134.0964 227° Southwest  Level FlightAware Approximate
01:00PM 50.5909 133.9513 227° Southwest  Level FlightAware Approximate
01:01PM 50.5055 133.8067 227° Southwest  Level FlightAware Approximate
01:02PM 50.4200 133.6626 227° Southwest  Level FlightAware Approximate
01:03PM 50.3342 133.5190 227° Southwest  Level FlightAware Approximate
01:04PM 50.2483 133.3759 227° Southwest  Level FlightAware Approximate
01:05PM 50.1622 133.2334 227° Southwest  Level FlightAware Approximate
01:06PM 50.0759 133.0913 226° Southwest  Level FlightAware Approximate
01:07PM 49.9895 132.9498 226° Southwest  Level FlightAware Approximate
01:08PM 49.9028 132.8088 226° Southwest  Level FlightAware Approximate
01:09PM 49.8161 132.6683 226° Southwest  Level FlightAware Approximate
01:10PM 49.7291 132.5282 226° Southwest  Level FlightAware Approximate
01:11PM 49.6420 132.3887 226° Southwest  Level FlightAware Approximate
01:12PM 49.5547 132.2497 226° Southwest  Level FlightAware Approximate
01:13PM 49.4672 132.1112 226° Southwest  Level FlightAware Approximate
01:14PM 49.3796 131.9732 226° Southwest  Level FlightAware Approximate
01:15PM 49.2918 131.8357 226° Southwest  Level FlightAware Approximate
01:16PM 49.2039 131.6986 225° Southwest  Level FlightAware Approximate
01:17PM 49.1157 131.5621 225° Southwest  Level FlightAware Approximate
01:18PM 49.0275 131.4260 225° Southwest  Level FlightAware Approximate
01:19PM 48.9390 131.2904 225° Southwest  Level FlightAware Approximate
01:20PM 48.8505 131.1553 225° Southwest  Level FlightAware Approximate
01:21PM 48.7617 131.0207 225° Southwest  Level FlightAware Approximate
01:22PM 48.6728 130.8866 225° Southwest  Level FlightAware Approximate
01:23PM 48.5838 130.7529 225° Southwest  Level FlightAware Approximate
01:24PM 48.4945 130.6197 225° Southwest  Level FlightAware Approximate
01:25PM 48.4052 130.4869 231° Southwest  Level FlightAware Approximate
01:26PM 48.3258 130.3407 231° Southwest  Level FlightAware Approximate
01:27PM 48.2462 130.1950 231° Southwest  Level FlightAware Approximate
01:28PM 48.1664 130.0497 230° Southwest  Level FlightAware Approximate
01:29PM 48.0865 129.9049 230° Southwest  Level FlightAware Approximate
01:30PM 48.0063 129.7605 230° Southwest  Level FlightAware Approximate
01:31PM 47.9260 129.6166 230° Southwest  Level FlightAware Approximate
01:32PM 47.8455 129.4731 230° Southwest  Level FlightAware Approximate
01:33PM 47.7649 129.3301 230° Southwest  Level FlightAware Approximate
01:34PM 47.6840 129.1875 230° Southwest  Level FlightAware Approximate
01:35PM 47.6030 129.0454 230° Southwest  Level FlightAware Approximate
01:36PM 47.5218 128.9037 230° Southwest  Level FlightAware Approximate
01:37PM 47.4404 128.7624 230° Southwest  Level FlightAware Approximate
01:38PM 47.3588 128.6216 229° Southwest  Level FlightAware Approximate
01:39PM 47.2771 128.4812 229° Southwest  Level FlightAware Approximate
01:40PM 47.1952 128.3412 229° Southwest  Level FlightAware Approximate
01:41PM 47.1132 128.2017 229° Southwest  Level FlightAware Approximate
01:42PM 47.0309 128.0626 229° Southwest  Level FlightAware Approximate
01:43PM 46.9486 127.9239 229° Southwest  Level FlightAware Approximate
01:44PM 46.8660 127.7857 229° Southwest  Level FlightAware Approximate
01:45PM 46.7832 127.6478 229° Southwest  Level FlightAware Approximate
01:46PM 46.7004 127.5104 229° Southwest  Level FlightAware Approximate
01:47PM 46.6173 127.3735 228° Southwest  Level FlightAware Approximate
01:48PM 46.5341 127.2369 231° Southwest  Level FlightAware Approximate
01:49PM 46.4557 127.0946 231° Southwest  Level FlightAware Approximate
01:50PM 46.3772 126.9527 231° Southwest  Level FlightAware Approximate
01:51PM 46.2985 126.8112 231° Southwest  Level FlightAware Approximate
01:52PM 46.2196 126.6701 231° Southwest  Level FlightAware Approximate
01:53PM 46.1406 126.5294 231° Southwest  Level FlightAware Approximate
01:54PM 46.0613 126.3891 231° Southwest  Level FlightAware Approximate
01:55PM 45.9819 126.2492 231° Southwest  Level FlightAware Approximate
01:56PM 45.9024 126.1098 231° Southwest  Level FlightAware Approximate
01:57PM 45.8227 125.9707 236° Southwest  Level FlightAware Approximate
01:58PM 45.7516 125.8224 235° Southwest  Level FlightAware Approximate
01:59PM 45.6803 125.6746 235° Southwest  Level FlightAware Approximate
02:00PM 45.6089 125.5271 235° Southwest  Level FlightAware Approximate
02:01PM 45.5372 125.3800 235° Southwest  Level FlightAware Approximate
02:02PM 45.4654 125.2332 235° Southwest  Level FlightAware Approximate
02:03PM 45.3934 125.0869 235° Southwest  Level FlightAware Approximate
02:04PM 45.3212 124.9409 235° Southwest  Level FlightAware Approximate
02:05PM 45.2488 124.7953 235° Southwest  Level FlightAware Approximate
02:06PM 45.1762 124.6500 235° Southwest  Level FlightAware Approximate
02:07PM 45.1034 124.5051 234° Southwest  Level FlightAware Approximate
02:08PM 45.0305 124.3606 234° Southwest  Level FlightAware Approximate
02:09PM 44.9574 124.2165 234° Southwest  Level FlightAware Approximate
02:10PM 44.8841 124.0727 234° Southwest  Level FlightAware Approximate
02:11PM 44.8106 123.9293 234° Southwest  Level FlightAware Approximate
02:12PM 44.7369 123.7862 234° Southwest  Level FlightAware Approximate
02:13PM 44.6631 123.6436 234° Southwest  Level FlightAware Approximate
02:14PM 44.5891 123.5013 234° Southwest  Level FlightAware Approximate
02:15PM 44.5149 123.3593 234° Southwest  Level FlightAware Approximate
02:16PM 44.4405 123.2177 234° Southwest  Level FlightAware Approximate
02:17PM 44.3660 123.0765 233° Southwest  Level FlightAware Approximate
02:18PM 44.2912 122.9356 233° Southwest  Level FlightAware Approximate
02:19PM 44.2163 122.7951 233° Southwest  Level FlightAware Approximate
02:20PM 44.1413 122.6550 233° Southwest  Level FlightAware Approximate
02:21PM 44.0661 122.5152 233° Southwest  Level FlightAware Approximate
02:22PM 43.9907 122.3757 233° Southwest  Level FlightAware Approximate
02:23PM 43.9151 122.2366 233° Southwest  Level FlightAware Approximate
02:24PM 43.8393 122.0979 233° Southwest  Level FlightAware Approximate
02:25PM 43.7634 121.9595 233° Southwest  Level FlightAware Approximate
02:26PM 43.6874 121.8215 233° Southwest  Level FlightAware Approximate
02:27PM 43.6111 121.6838 233° Southwest  Level FlightAware Approximate
02:28PM 43.5347 121.5465 217° Southwest  Level FlightAware Approximate
02:29PM 43.4351 121.4414 217° Southwest  Level FlightAware Approximate
02:30PM 43.3354 121.3367 217° Southwest  Level FlightAware Approximate
02:31PM 43.2355 121.2323 217° Southwest  Level FlightAware Approximate
02:32PM 43.1356 121.1283 217° Southwest  Level FlightAware Approximate
02:33PM 43.0356 121.0246 217° Southwest  Level FlightAware Approximate
02:34PM 42.9355 120.9212 217° Southwest  Level FlightAware Approximate
02:35PM 42.8353 120.8182 217° Southwest  Level FlightAware Approximate
02:36PM 42.7351 120.7155 217° Southwest  Level FlightAware Approximate
02:37PM 42.6347 120.6131 217° Southwest  Level FlightAware Approximate
02:38PM 42.5342 120.5111 217° Southwest  Level FlightAware Approximate
02:39PM 42.4336 120.4094 217° Southwest  Level FlightAware Approximate
02:40PM 42.3330 120.3080 217° Southwest  Level FlightAware Approximate
02:41PM 42.2323 120.2069 217° Southwest  Level FlightAware Approximate
02:42PM 42.1314 120.1062 216° Southwest  Level FlightAware Approximate
02:43PM 42.0305 120.0058 216° Southwest  Level FlightAware Approximate
02:44PM 41.9295 119.9057 216° Southwest  Level FlightAware Approximate
02:45PM 41.8284 119.8059 216° Southwest  Level FlightAware Approximate
02:46PM 41.7273 119.7064 216° Southwest  Level FlightAware Approximate
02:47PM 41.6260 119.6073 216° Southwest  Level FlightAware Approximate
02:48PM 41.5247 119.5085 216° Southwest  Level FlightAware Approximate
02:49PM 41.4232 119.4099 216° Southwest  Level FlightAware Approximate
02:50PM 41.3217 119.3117 216° Southwest  Level FlightAware Approximate
02:51PM 41.2201 119.2138 216° Southwest  Level FlightAware Approximate
02:52PM 41.1185 119.1162 216° Southwest  Level FlightAware Approximate
02:53PM 41.0167 119.0189 216° Southwest  Level FlightAware Approximate
02:54PM 40.9148 118.9219 216° Southwest  Level FlightAware Approximate
02:55PM 40.8129 118.8251 216° Southwest  Level FlightAware Approximate
02:56PM 40.7109 118.7287 216° Southwest  Level FlightAware Approximate
02:57PM 40.6088 118.6326 216° Southwest  Level FlightAware Approximate
02:58PM 40.5067 118.5368 205° Southwest  Level FlightAware Approximate
02:59PM 40.3931 118.4667 205° Southwest  Level FlightAware Approximate
03:00PM 40.2795 118.3969 205° Southwest  Level FlightAware Approximate
03:01PM 40.1659 118.3272 205° Southwest  Level FlightAware Approximate
03:02PM 40.0522 118.2579 205° Southwest  Level FlightAware Approximate
03:03PM 39.9385 118.1887 205° Southwest  Level FlightAware Approximate
03:04PM 39.8247 118.1198 205° Southwest  Level FlightAware Approximate
03:05PM 39.7109 118.0511 205° Southwest  Level FlightAware Approximate
03:06PM 39.5971 117.9827 205° Southwest  Level FlightAware Approximate
03:07PM 39.4832 117.9144 205° Southwest  Level FlightAware Approximate
03:08PM 39.3693 117.8464 205° Southwest  Level FlightAware Approximate
03:09PM 39.2553 117.7786 205° Southwest  Level FlightAware Approximate
03:10PM 39.1413 117.7110 205° Southwest  Level FlightAware Approximate
03:11PM 39.0273 117.6437 205° Southwest  Level FlightAware Approximate
03:12PM 38.9132 117.5765 205° Southwest  Level FlightAware Approximate
03:13PM 38.7991 117.5096 205° Southwest  Level FlightAware Approximate
03:14PM 38.6850 117.4429 204° Southwest  Level FlightAware Approximate
03:15PM 38.5708 117.3764 204° Southwest  Level FlightAware Approximate
03:16PM 38.4566 117.3101 204° Southwest  Level FlightAware Approximate
03:17PM 38.3423 117.2440 204° Southwest  Level FlightAware Approximate
03:18PM 38.2280 117.1782 204° Southwest  Level FlightAware Approximate
03:19PM 38.1137 117.1125 204° Southwest  Level FlightAware Approximate
03:20PM 37.9993 117.0471 204° Southwest  Level FlightAware Approximate
03:21PM 37.8849 116.9818 204° Southwest  Level FlightAware Approximate
03:22PM 37.7704 116.9168 204° Southwest  Level FlightAware Approximate
03:23PM 37.6559 116.8519 204° Southwest  Level FlightAware Approximate
03:24PM 37.5414 116.7873 204° Southwest  Level FlightAware Approximate
03:25PM 37.4269 116.7228 204° Southwest  Level FlightAware Approximate
03:26PM 37.3123 116.6586 204° Southwest  Level FlightAware Approximate
03:27PM 37.1977 116.5945 204° Southwest  Level FlightAware Approximate
03:28PM 37.0830 116.5306 204° Southwest  Level FlightAware Approximate
03:29PM 36.9683 116.4670 204° Southwest  Level FlightAware Approximate
03:30PM 36.8536 116.4035 204° Southwest  Level FlightAware Approximate
03:31PM 36.7388 116.3402 195° South  Level FlightAware Approximate
03:32PM 36.6179 116.2985 195° South  Level FlightAware Approximate
03:33PM 36.4970 116.2570 195° South  Level FlightAware Approximate
03:34PM 36.3760 116.2156 195° South  Level FlightAware Approximate
03:35PM 36.2551 116.1744 195° South  Level FlightAware Approximate
03:36PM 36.1341 116.1332 195° South  Level FlightAware Approximate
03:37PM 36.0131 116.0922 195° South  Level FlightAware Approximate
03:38PM 35.8921 116.0514 195° South  Level FlightAware Approximate
03:39PM 35.7711 116.0106 195° South  Level FlightAware Approximate
03:40PM 35.6500 115.9700 195° South  Level FlightAware Approximate
03:41PM 35.5290 115.9295 195° South  Level FlightAware Approximate
03:42PM 35.4079 115.8891 195° South  Level FlightAware Approximate
03:43PM 35.2868 115.8488 195° South  Level FlightAware Approximate
03:44PM 35.1658 115.8087 195° South  Level FlightAware Approximate
03:45PM 35.0447 115.7687 195° South  Level FlightAware Approximate
03:46PM 34.9235 115.7288 195° South  Level FlightAware Approximate
03:47PM 34.8024 115.6890 195° South  Level FlightAware Approximate
03:48PM 34.6813 115.6493 195° South  Level FlightAware Approximate
03:49PM 34.5601 115.6098 195° South  Level FlightAware Approximate
03:50PM 34.4389 115.5704 195° South  Level FlightAware Approximate
03:51PM 34.3178 115.5310 195° South  Level FlightAware Approximate
03:52PM 34.1966 115.4918 195° South  Level FlightAware Approximate
03:53PM 34.0754 115.4527 195° South  Level FlightAware Approximate
03:54PM 33.9542 115.4137 195° South  Level FlightAware Approximate
03:55PM 33.8329 115.3749 195° South  Level FlightAware Approximate
03:56PM 33.7117 115.3361 195° South  Level FlightAware Approximate
03:57PM 33.5904 115.2975 195° South  Level FlightAware Approximate
03:58PM 33.4692 115.2589 195° South  Level FlightAware Approximate
03:59PM 33.3479 115.2205 195° South  Level FlightAware Approximate
04:00PM 33.2266 115.1822 195° South  Level FlightAware Approximate
04:01PM 33.1053 115.1439 188° South  Level FlightAware Approximate
04:02PM 32.9812 115.1224 188° South  Level FlightAware Approximate
04:03PM 32.8570 115.1009 188° South  Level FlightAware Approximate
04:04PM 32.7329 115.0795 188° South  Level FlightAware Approximate
04:05PM 32.6087 115.0582 188° South  Level FlightAware Approximate
04:06PM 32.4846 115.0369 188° South  Level FlightAware Approximate
04:07PM 32.3604 115.0156 188° South  Level FlightAware Approximate
04:08PM 32.2362 114.9945 188° South  Level FlightAware Approximate
04:09PM 32.1120 114.9733 188° South  Level FlightAware Approximate
04:10PM 31.9879 114.9523 188° South  Level FlightAware Approximate
04:11PM 31.8637 114.9313 188° South  Level FlightAware Approximate
04:12PM 31.7395 114.9103 188° South  Level FlightAware Approximate
04:13PM 31.6153 114.8894 188° South  Level FlightAware Approximate
04:14PM 31.4911 114.8686 188° South  Level FlightAware Approximate
04:15PM 31.3670 114.8478 188° South  Level FlightAware Approximate
04:16PM 31.2428 114.8271 188° South  Level FlightAware Approximate
04:17PM 31.1186 114.8064 188° South  Level FlightAware Approximate
04:18PM 30.9944 114.7858 188° South  Level FlightAware Approximate
04:19PM 30.8702 114.7652 188° South  Level FlightAware Approximate
04:20PM 30.7460 114.7447 188° South  Level FlightAware Approximate
04:21PM 30.6217 114.7243 188° South  Level FlightAware Approximate
04:22PM 30.4975 114.7038 188° South  Level FlightAware Approximate
04:23PM 30.3734 114.6825 188° South  Level FlightAware Approximate
04:24PM 30.2494 114.6612 188° South  Level FlightAware Approximate
04:25PM 30.1253 114.6399 188° South  Level FlightAware Approximate
04:26PM 30.0012 114.6187 188° South  Level FlightAware Approximate
04:27PM 29.8771 114.5975 188° South  Level FlightAware Approximate
04:28PM 29.7530 114.5764 188° South  Level FlightAware Approximate
04:29PM 29.6288 114.5554 188° South  Level FlightAware Approximate
04:30PM 29.5047 114.5344 188° South  Level FlightAware Approximate
04:31PM 29.3806 114.5135 188° South  Level FlightAware Approximate
04:32PM 29.2565 114.4926 188° South  Level FlightAware Approximate
04:33PM 29.1324 114.4717 188° South  Level FlightAware Approximate
04:34PM 29.0082 114.4509 188° South  Level FlightAware Approximate
04:35PM 28.8841 114.4302 188° South  Level FlightAware Approximate
04:36PM 28.7600 114.4095 188° South  Level FlightAware Approximate
04:37PM 28.6358 114.3888 188° South  Level FlightAware Approximate
04:38PM 28.5117 114.3682 188° South  Level FlightAware Approximate
04:39PM 28.3876 114.3477 188° South  Level FlightAware Approximate
04:40PM 28.2634 114.3272 191° South  Level FlightAware Approximate
04:41PM 28.1402 114.3004 191° South  Level FlightAware Approximate
04:42PM 28.0170 114.2737 191° South  Level FlightAware Approximate
04:43PM 27.8938 114.2470 191° South  Level FlightAware Approximate
04:44PM 27.7706 114.2204 191° South  Level FlightAware Approximate
04:45PM 27.6473 114.1939 191° South  Level FlightAware Approximate
04:46PM 27.5241 114.1674 191° South  Level FlightAware Approximate
04:47PM 27.4009 114.1410 191° South  Level FlightAware Approximate
04:48PM 27.2776 114.1146 191° South  Level FlightAware Approximate
04:49PM 27.1544 114.0883 191° South  Level FlightAware Approximate
04:50PM 27.0311 114.0621 191° South  Level FlightAware Approximate
04:51PM 26.9079 114.0359 191° South  Level FlightAware Approximate
04:52PM 26.7846 114.0097 191° South  Level FlightAware Approximate
04:53PM 26.6613 113.9837 191° South  Level FlightAware Approximate
04:54PM 26.5381 113.9576 191° South  Level FlightAware Approximate
04:55PM 26.4148 113.9317 191° South  Level FlightAware Approximate
04:56PM 26.2915 113.9058 191° South  Level FlightAware Approximate
04:57PM 26.1682 113.8799 191° South  Level FlightAware Approximate
04:58PM 26.0449 113.8541 191° South  Level FlightAware Approximate
04:59PM 25.9216 113.8284 191° South  Level FlightAware Approximate
05:00PM 25.7983 113.8027 191° South  Level FlightAware Approximate
05:01PM 25.6750 113.7770 191° South  Level FlightAware Approximate
05:02PM 25.5517 113.7515 191° South  Level FlightAware Approximate
05:03PM 25.4284 113.7259 191° South  Level FlightAware Approximate
05:04PM 25.3051 113.7004 191° South  Level FlightAware Approximate
05:05PM 25.1818 113.6750 191° South  Level FlightAware Approximate
05:06PM 25.0584 113.6496 191° South  Level FlightAware Approximate
05:07PM 24.9351 113.6243 191° South  Level FlightAware Approximate
05:08PM 24.8118 113.5991 191° South  Level FlightAware Approximate
05:09PM 24.6884 113.5738 191° South  Level FlightAware Approximate
05:10PM 24.5651 113.5487 191° South  Level FlightAware Approximate
05:11PM 24.4417 113.5235 190° South  Level FlightAware Approximate
05:12PM 24.3184 113.4985 190° South  Level FlightAware Approximate
05:13PM 24.1950 113.4734 190° South  Level FlightAware Approximate
05:14PM 24.0716 113.4484 190° South  Level FlightAware Approximate
05:15PM 23.9483 113.4235 190° South  Level FlightAware Approximate
05:16PM 23.8249 113.3986 190° South  Level FlightAware Approximate
05:17PM 23.7015 113.3738 190° South  Level FlightAware Approximate
05:18PM 23.5782 113.3490 165° South  Level FlightAware Approximate
05:19PM 23.4718 113.3808 203° Southwest  Level FlightAware Approximate
05:20PM 23.3561 113.3280 200° South  Level FlightAware Approximate
05:21PM 23.2386 113.2810 North  Level FlightAware Approximate
05:22PM 23.3633 113.2954 33° Northeast  Level Estimated
05:23PM 23.5032 113.3942 202° Southwest  Level FlightAware Approximate
05:24PM 23.3868 113.3432 202° Southwest  Level FlightAware Approximate
05:25PM 23.2704 113.2923 193° South  Level FlightAware Approximate
05:26PM 23.1667 113.2667 North  Level FlightAware Approximate
05:27PM 23.2911 113.2843 187° South  Level Estimated
05:28PM 23.1670 113.2667 North  Level FlightAware Approximate
05:29PM 23.2914 113.2844 187° South  Level Estimated
05:30PM 23.1674 113.2668 North  Level FlightAware Approximate
05:31PM 23.2917 113.2845 187° South  Level Estimated
05:32PM 23.1667 113.2667 North  Level FlightAware Approximate
05:33PM 23.2911 113.2843 187° South  Level Estimated
05:34PM 23.1667 113.2667 North  Level FlightAware Approximate
05:35PM 23.2911 113.2843 187° South  Level Estimated
05:36PM 23.1667 113.2667 North  Level FlightAware Approximate
05:37PM 23.2911 113.2843 187° South  Level Estimated
05:38PM 23.1667 113.2667 North  Level FlightAware Approximate
05:39PM 23.2911 113.2843 187° South  Level Estimated
05:40PM 23.1667 113.2667 North  Level FlightAware Approximate
05:41PM 23.2911 113.2843 187° South  Level Estimated
05:42PM 23.1667 113.2667 North  Level FlightAware Approximate
05:43PM 23.2911 113.2843 187° South  Level Estimated
05:44PM 23.1667 113.2667 North  Level FlightAware Approximate
05:45PM 23.2911 113.2843 187° South  Level Estimated
05:46PM 23.1667 113.2667 North  Level FlightAware Approximate
05:47PM 23.2911 113.2843 North  Level Estimated

Login

Don't have an account? Register now (free) for customized features, flight alerts, and more!